Time;durP1;ratioP1;P1;durP2;ratioP2;P2;SDS_P1;SDS_P2;PMS_P1;PMS_P2;Temp;Humidity;BMP_temperature;BMP_pressure;BME280_temperature;BME280_humidity;BME280_pressure;Samples;Min_cycle;Max_cycle;Signal;HPM_P1;HPM_P2
2023/01/05 00:02:18;;;;;;;9.43;1.10;;;;;;;;;;5105611;28;20043;-76
2023/01/05 00:04:52;;;;;;;3.47;1.02;;;;;;;;;;5105718;28;20047;-76
2023/01/05 00:07:22;;;;;;;7.30;0.88;;;;;;;;;;5106819;28;20524;-76
2023/01/05 00:09:53;;;;;;;5.28;1.33;;;;;;;;;;5107709;28;20043;-78
2023/01/05 00:24:04;;;;;;;3.47;1.05;;;;;;;;;;5099756;28;20060;-76
2023/01/05 00:26:35;;;;;;;4.15;0.90;;;;;;;;;;5110757;28;20498;-74
2023/01/05 00:29:06;;;;;;;5.90;0.77;;;;;;;;;;5110509;28;20052;-74
2023/01/05 00:31:35;;;;;;;3.10;0.90;;;;;;;;;;5111177;28;20043;-76
2023/01/05 00:34:06;;;;;;;3.22;0.90;;;;;;;;;;5108955;28;20056;-77
2023/01/05 00:36:39;;;;;;;2.83;0.93;;;;;;;;;;5108968;28;20493;-76
2023/01/05 00:39:09;;;;;;;6.43;0.90;;;;;;;;;;5109065;28;20043;-76
2023/01/05 00:41:41;;;;;;;5.50;1.35;;;;;;;;;;5110555;28;20040;-75
2023/01/05 00:44:11;;;;;;;5.90;0.82;;;;;;;;;;5110557;28;20114;-76
2023/01/05 00:46:46;;;;;;;3.13;1.10;;;;;;;;;;5109220;28;20548;-75
2023/01/05 00:49:17;;;;;;;5.47;0.90;;;;;;;;;;5110902;28;20056;-76
2023/01/05 00:51:49;;;;;;;3.63;0.88;;;;;;;;;;5110649;28;20058;-75
2023/01/05 00:54:18;;;;;;;4.43;0.80;;;;;;;;;;5108313;28;20062;-75
2023/01/05 00:56:48;;;;;;;7.18;1.17;;;;;;;;;;5110604;28;20512;-75
2023/01/05 00:59:20;;;;;;;5.70;0.90;;;;;;;;;;5110267;28;20043;-75
2023/01/05 01:01:56;;;;;;;4.70;0.77;;;;;;;;;;5110313;28;20044;-75
2023/01/05 01:04:27;;;;;;;3.70;0.90;;;;;;;;;;5108711;28;20078;-75
2023/01/05 01:06:57;;;;;;;3.53;0.82;;;;;;;;;;5109795;28;20047;-75
2023/01/05 01:09:28;;;;;;;2.78;0.80;;;;;;;;;;5109270;28;20486;-75
2023/01/05 01:12:01;;;;;;;4.38;0.80;;;;;;;;;;5108620;28;20043;-76
2023/01/05 01:14:32;;;;;;;7.07;0.70;;;;;;;;;;5109814;28;20110;-75
2023/01/05 01:17:02;;;;;;;4.20;0.73;;;;;;;;;;5107465;28;20430;-75
2023/01/05 01:19:41;;;;;;;4.43;0.80;;;;;;;;;;5107461;28;20525;-77
2023/01/05 01:22:13;;;;;;;2.75;1.00;;;;;;;;;;5110209;28;20051;-76
2023/01/05 01:24:44;;;;;;;4.07;0.85;;;;;;;;;;5109117;28;20046;-76
2023/01/05 01:27:14;;;;;;;3.50;1.02;;;;;;;;;;5108914;28;20806;-75
2023/01/05 01:29:44;;;;;;;3.05;0.90;;;;;;;;;;5109258;28;20347;-75
2023/01/05 01:32:14;;;;;;;4.47;0.88;;;;;;;;;;5109438;28;20051;-75
2023/01/05 01:34:46;;;;;;;5.97;0.80;;;;;;;;;;5107447;28;20059;-76
2023/01/05 01:37:18;;;;;;;7.18;1.17;;;;;;;;;;5107370;28;20518;-75
2023/01/05 01:39:52;;;;;;;7.57;1.13;;;;;;;;;;5107575;28;20044;-76
2023/01/05 01:42:25;;;;;;;4.20;1.00;;;;;;;;;;5107461;28;20056;-76
2023/01/05 01:44:58;;;;;;;3.78;0.80;;;;;;;;;;5107998;28;20047;-76
2023/01/05 01:47:52;;;;;;;7.00;0.80;;;;;;;;;;5108517;28;20458;-76
2023/01/05 01:50:22;;;;;;;1.92;0.90;;;;;;;;;;5107163;28;20498;-75
2023/01/05 01:53:00;;;;;;;5.25;0.98;;;;;;;;;;5109545;28;20043;-76
2023/01/05 01:55:32;;;;;;;3.50;0.73;;;;;;;;;;5107459;28;20051;-76
2023/01/05 01:58:10;;;;;;;11.25;1.05;;;;;;;;;;5107951;28;20421;-75
2023/01/05 02:00:42;;;;;;;5.95;0.95;;;;;;;;;;5108002;28;20410;-76
2023/01/05 02:03:13;;;;;;;6.32;1.02;;;;;;;;;;5109477;28;20490;-76
2023/01/05 02:05:46;;;;;;;4.78;0.70;;;;;;;;;;5107552;28;20058;-75
2023/01/05 02:08:24;;;;;;;7.75;1.13;;;;;;;;;;5109084;28;20055;-76
2023/01/05 02:11:33;;;;;;;4.10;0.70;;;;;;;;;;5107303;28;20422;-75
2023/01/05 02:14:37;;;;;;;3.63;0.75;;;;;;;;;;5068642;28;20047;-75
2023/01/05 02:17:24;;;;;;;3.97;0.82;;;;;;;;;;5107089;28;20062;-76
2023/01/05 02:20:20;;;;;;;3.15;0.90;;;;;;;;;;5108069;28;20051;-76
2023/01/05 02:23:31;;;;;;;3.42;0.88;;;;;;;;;;5106846;28;20056;-75
2023/01/05 02:26:28;;;;;;;4.55;1.15;;;;;;;;;;5106642;28;20537;-75
2023/01/05 02:29:41;;;;;;;9.00;1.02;;;;;;;;;;5106343;28;20506;-75
2023/01/05 02:32:21;;;;;;;4.30;1.05;;;;;;;;;;5108755;28;20040;-75
2023/01/05 02:35:17;;;;;;;4.55;1.20;;;;;;;;;;5106551;28;20513;-75
2023/01/05 02:38:05;;;;;;;9.23;1.65;;;;;;;;;;5108174;28;20070;-75
2023/01/05 02:40:51;;;;;;;3.20;0.90;;;;;;;;;;5106386;28;20043;-75
2023/01/05 02:43:21;;;;;;;3.83;1.20;;;;;;;;;;5106621;28;20066;-76
2023/01/05 02:45:51;;;;;;;7.63;1.35;;;;;;;;;;5106178;28;20074;-75
2023/01/05 02:48:22;;;;;;;3.75;1.73;;;;;;;;;;5106207;28;20055;-75
2023/01/05 02:51:07;;;;;;;3.20;1.05;;;;;;;;;;5105950;28;20058;-76
2023/01/05 02:53:48;;;;;;;9.40;1.45;;;;;;;;;;5106371;28;20895;-75
2023/01/05 02:56:29;;;;;;;2.28;1.20;;;;;;;;;;5105899;28;20048;-75
2023/01/05 02:59:09;;;;;;;6.30;1.35;;;;;;;;;;5107460;28;20062;-76
2023/01/05 03:01:55;;;;;;;3.20;1.27;;;;;;;;;;5105853;28;20062;-75
2023/01/05 03:04:30;;;;;;;3.58;1.20;;;;;;;;;;5105906;28;20052;-75
2023/01/05 03:07:08;;;;;;;3.25;1.05;;;;;;;;;;5089494;28;20421;-75
2023/01/05 03:09:41;;;;;;;4.05;0.90;;;;;;;;;;5106680;28;20063;-75
2023/01/05 03:15:33;;;;;;;3.17;1.15;;;;;;;;;;5101518;28;20047;-76
2023/01/05 03:18:08;;;;;;;4.45;1.40;;;;;;;;;;5107192;28;20054;-76
2023/01/05 03:20:46;;;;;;;3.40;1.20;;;;;;;;;;5105332;28;20060;-75
2023/01/05 03:35:37;;;;;;;6.18;1.60;;;;;;;;;;5106073;28;21129;-75
2023/01/05 03:38:16;;;;;;;3.03;1.70;;;;;;;;;;5105771;28;20056;-75
2023/01/05 03:40:51;;;;;;;5.82;1.67;;;;;;;;;;5105405;28;20056;-75
2023/01/05 03:43:23;;;;;;;6.78;1.75;;;;;;;;;;5106005;28;20047;-75
2023/01/05 03:45:57;;;;;;;6.18;1.70;;;;;;;;;;5089138;28;20133;-75
2023/01/05 03:48:30;;;;;;;3.90;1.48;;;;;;;;;;5105447;28;20059;-75
2023/01/05 03:51:02;;;;;;;3.28;1.40;;;;;;;;;;5107434;28;20039;-75
2023/01/05 03:53:32;;;;;;;2.67;1.20;;;;;;;;;;5105739;28;20052;-75
2023/01/05 03:56:03;;;;;;;2.05;0.88;;;;;;;;;;5105718;28;20055;-75
2023/01/05 03:58:33;;;;;;;6.90;1.17;;;;;;;;;;5106960;28;20429;-75
2023/01/05 04:01:05;;;;;;;5.80;1.30;;;;;;;;;;5104458;28;20418;-75
2023/01/05 04:03:37;;;;;;;6.30;1.10;;;;;;;;;;5104890;28;20387;-75
2023/01/05 04:06:08;;;;;;;5.50;1.55;;;;;;;;;;5088945;28;20071;-75
2023/01/05 04:08:39;;;;;;;2.65;1.42;;;;;;;;;;5104831;28;20051;-75
2023/01/05 04:11:12;;;;;;;4.82;1.42;;;;;;;;;;5105082;28;20047;-75
2023/01/05 04:13:49;;;;;;;3.88;1.30;;;;;;;;;;5106036;28;20051;-75
2023/01/05 04:16:19;;;;;;;5.70;1.20;;;;;;;;;;5105688;28;20410;-75
2023/01/05 04:18:51;;;;;;;5.25;1.35;;;;;;;;;;5104735;28;20043;-75
2023/01/05 04:21:23;;;;;;;12.13;1.92;;;;;;;;;;5104767;28;20048;-75
2023/01/05 04:23:56;;;;;;;5.60;1.42;;;;;;;;;;5105168;28;20051;-75
2023/01/05 04:26:27;;;;;;;6.00;1.50;;;;;;;;;;5106487;28;20410;-75
2023/01/05 04:28:56;;;;;;;6.15;1.20;;;;;;;;;;5106799;28;20433;-75
2023/01/05 04:31:27;;;;;;;7.20;1.30;;;;;;;;;;5088586;28;20051;-75
2023/01/05 04:33:59;;;;;;;7.38;1.73;;;;;;;;;;5105456;28;20052;-75
2023/01/05 04:36:31;;;;;;;5.90;1.48;;;;;;;;;;5104518;28;20059;-75
2023/01/05 04:39:01;;;;;;;8.75;1.58;;;;;;;;;;5104427;28;20048;-75
2023/01/05 04:41:32;;;;;;;6.35;1.67;;;;;;;;;;5104939;28;20051;-75
2023/01/05 04:44:03;;;;;;;7.72;1.70;;;;;;;;;;5105067;28;20062;-75
2023/01/05 04:46:35;;;;;;;4.18;1.42;;;;;;;;;;5105162;28;20136;-75
2023/01/05 04:49:05;;;;;;;7.85;1.80;;;;;;;;;;5104819;28;20059;-75
2023/01/05 04:51:37;;;;;;;17.20;2.88;;;;;;;;;;5104373;28;20056;-75
2023/01/05 04:54:10;;;;;;;5.78;1.58;;;;;;;;;;5104715;28;20529;-75
2023/01/05 04:56:41;;;;;;;4.18;1.70;;;;;;;;;;5104552;28;20048;-75
2023/01/05 04:59:13;;;;;;;3.90;1.38;;;;;;;;;;5107083;28;20048;-75
2023/01/05 05:01:44;;;;;;;7.13;1.77;;;;;;;;;;5108497;28;20055;-75
2023/01/05 05:04:17;;;;;;;10.43;1.90;;;;;;;;;;5092264;28;20056;-75
2023/01/05 05:06:50;;;;;;;4.97;1.30;;;;;;;;;;5110109;28;20058;-75
2023/01/05 05:09:23;;;;;;;3.95;1.20;;;;;;;;;;5108202;28;20054;-75
2023/01/05 05:11:54;;;;;;;3.10;0.90;;;;;;;;;;5108310;28;20047;-75
2023/01/05 05:14:26;;;;;;;3.30;1.10;;;;;;;;;;5107985;28;20051;-75
2023/01/05 05:16:59;;;;;;;3.60;1.23;;;;;;;;;;5108479;28;20066;-75
2023/01/05 05:19:30;;;;;;;1.50;1.05;;;;;;;;;;5107960;28;20060;-75
2023/01/05 05:22:01;;;;;;;7.18;1.52;;;;;;;;;;5107672;28;20083;-75
2023/01/05 05:24:33;;;;;;;3.13;0.88;;;;;;;;;;5107877;28;20394;-75
2023/01/05 05:27:03;;;;;;;1.95;1.10;;;;;;;;;;5091927;28;20494;-75
2023/01/05 05:29:33;;;;;;;4.47;1.30;;;;;;;;;;5107461;28;20059;-75
2023/01/05 05:32:03;;;;;;;4.75;1.70;;;;;;;;;;5109081;28;20077;-75
2023/01/05 05:34:34;;;;;;;6.13;1.17;;;;;;;;;;5109378;28;20043;-75
2023/01/05 05:37:04;;;;;;;3.80;1.50;;;;;;;;;;5109318;28;20057;-75
2023/01/05 05:39:35;;;;;;;3.67;1.15;;;;;;;;;;5109893;28;20059;-75
2023/01/05 05:42:05;;;;;;;4.43;1.02;;;;;;;;;;5109519;28;20047;-75
2023/01/05 05:44:35;;;;;;;3.92;1.30;;;;;;;;;;5109697;28;20597;-75
2023/01/05 05:47:06;;;;;;;3.75;1.33;;;;;;;;;;5109836;28;20406;-75
2023/01/05 05:49:37;;;;;;;2.65;0.90;;;;;;;;;;5110215;28;20051;-75
2023/01/05 05:52:08;;;;;;;2.95;0.90;;;;;;;;;;5109372;28;20386;-75
2023/01/05 05:54:39;;;;;;;3.28;0.90;;;;;;;;;;5107176;28;20047;-75
2023/01/05 05:57:09;;;;;;;3.50;1.55;;;;;;;;;;5109302;28;20498;-75
2023/01/05 05:59:39;;;;;;;2.22;1.00;;;;;;;;;;5109078;28;20051;-75
2023/01/05 06:02:10;;;;;;;2.78;0.70;;;;;;;;;;5108986;28;20051;-75
2023/01/05 06:04:41;;;;;;;1.67;0.80;;;;;;;;;;5108590;28;20043;-75
2023/01/05 06:07:11;;;;;;;4.28;1.10;;;;;;;;;;5109088;28;20395;-75
2023/01/05 06:09:41;;;;;;;2.80;0.93;;;;;;;;;;5108672;28;20055;-75
2023/01/05 06:12:11;;;;;;;2.67;0.98;;;;;;;;;;5108488;28;20163;-75
2023/01/05 06:14:42;;;;;;;2.85;1.00;;;;;;;;;;5109321;28;20044;-75
2023/01/05 06:17:12;;;;;;;2.28;1.15;;;;;;;;;;5106784;28;20047;-75
2023/01/05 06:20:09;;;;;;;3.30;1.00;;;;;;;;;;5107197;28;20063;-75
2023/01/05 06:22:40;;;;;;;4.80;0.70;;;;;;;;;;5108442;28;20042;-75
2023/01/05 06:25:12;;;;;;;5.50;0.75;;;;;;;;;;5108345;28;20052;-75
2023/01/05 06:27:42;;;;;;;5.03;1.00;;;;;;;;;;5108166;28;20039;-75
2023/01/05 06:30:13;;;;;;;1.13;0.85;;;;;;;;;;5107168;28;20052;-75
2023/01/05 06:32:43;;;;;;;2.00;0.77;;;;;;;;;;5108760;28;20451;-75
2023/01/05 06:35:14;;;;;;;6.45;0.98;;;;;;;;;;5108738;28;20490;-75
2023/01/05 06:37:45;;;;;;;3.63;0.80;;;;;;;;;;5108293;28;20044;-75
2023/01/05 06:40:16;;;;;;;3.50;0.88;;;;;;;;;;5109159;28;20521;-75
2023/01/05 06:42:46;;;;;;;6.25;0.88;;;;;;;;;;5108289;28;20473;-75
2023/01/05 06:45:17;;;;;;;7.82;0.93;;;;;;;;;;5108180;28;20054;-75
2023/01/05 06:47:47;;;;;;;2.58;1.00;;;;;;;;;;5106860;28;20058;-75
2023/01/05 06:50:23;;;;;;;1.95;0.93;;;;;;;;;;5107545;28;20521;-75
2023/01/05 06:52:53;;;;;;;3.13;1.40;;;;;;;;;;5106941;28;20521;-75
2023/01/05 06:55:25;;;;;;;4.72;1.20;;;;;;;;;;5106527;28;20061;-75
2023/01/05 06:57:55;;;;;;;3.63;0.90;;;;;;;;;;5108138;28;20050;-75
2023/01/05 07:00:29;;;;;;;2.67;0.77;;;;;;;;;;5107625;28;20066;-75
2023/01/05 07:02:59;;;;;;;3.17;0.73;;;;;;;;;;5107362;28;20537;-75
2023/01/05 07:05:30;;;;;;;2.05;0.93;;;;;;;;;;5108283;28;20044;-75
2023/01/05 07:08:01;;;;;;;2.88;0.75;;;;;;;;;;5107268;28;20059;-75
2023/01/05 07:10:32;;;;;;;3.38;1.02;;;;;;;;;;5107486;28;20413;-75
2023/01/05 07:13:02;;;;;;;4.53;1.20;;;;;;;;;;5105269;28;20055;-75
2023/01/05 07:15:32;;;;;;;3.97;1.17;;;;;;;;;;5107447;28;20054;-75
2023/01/05 07:18:03;;;;;;;3.75;1.10;;;;;;;;;;5107557;28;20043;-75
2023/01/05 07:20:34;;;;;;;4.75;1.10;;;;;;;;;;5107747;28;20047;-75
2023/01/05 07:23:04;;;;;;;1.20;0.70;;;;;;;;;;5088207;28;20056;-75
2023/01/05 07:25:34;;;;;;;4.10;0.95;;;;;;;;;;5106973;28;20043;-75
2023/01/05 07:28:04;;;;;;;4.60;0.95;;;;;;;;;;5107494;28;20410;-75
2023/01/05 07:30:35;;;;;;;3.22;0.93;;;;;;;;;;5107326;28;20043;-75
2023/01/05 07:33:05;;;;;;;2.97;0.98;;;;;;;;;;5107418;28;20052;-75
2023/01/05 07:35:35;;;;;;;3.25;1.02;;;;;;;;;;5105975;28;20429;-75
2023/01/05 07:38:05;;;;;;;2.25;0.88;;;;;;;;;;5106202;28;20051;-75
2023/01/05 07:40:35;;;;;;;3.30;0.93;;;;;;;;;;5107801;28;20414;-75
2023/01/05 07:43:06;;;;;;;3.05;1.00;;;;;;;;;;5106918;28;20062;-75
2023/01/05 07:45:38;;;;;;;3.92;1.10;;;;;;;;;;5107032;28;20055;-75
2023/01/05 07:48:09;;;;;;;4.57;1.00;;;;;;;;;;5107038;28;20032;-75
2023/01/05 07:50:38;;;;;;;4.80;1.00;;;;;;;;;;5107323;28;20048;-75
2023/01/05 07:53:09;;;;;;;4.72;1.13;;;;;;;;;;5107323;28;20047;-75
2023/01/05 07:55:39;;;;;;;3.30;1.13;;;;;;;;;;5107388;28;20032;-75
2023/01/05 07:58:09;;;;;;;4.43;0.98;;;;;;;;;;5107249;28;20047;-75
2023/01/05 08:00:39;;;;;;;6.22;1.75;;;;;;;;;;5107271;28;20074;-74
2023/01/05 08:03:09;;;;;;;4.03;1.25;;;;;;;;;;5106804;28;20039;-75
2023/01/05 08:05:39;;;;;;;1.85;1.15;;;;;;;;;;5107131;28;20046;-75
2023/01/05 08:08:10;;;;;;;8.48;1.00;;;;;;;;;;5105207;28;20058;-75
2023/01/05 08:10:42;;;;;;;2.67;1.05;;;;;;;;;;5106421;28;20051;-75
2023/01/05 08:16:01;;;;;;;2.65;0.98;;;;;;;;;;5107460;28;20043;-75
2023/01/05 08:18:31;;;;;;;4.05;1.35;;;;;;;;;;5107357;28;20051;-75
2023/01/05 08:21:05;;;;;;;3.28;1.30;;;;;;;;;;5106753;28;20036;-75
2023/01/05 08:23:38;;;;;;;4.65;1.38;;;;;;;;;;5107197;28;20043;-75
2023/01/05 08:26:15;;;;;;;5.13;0.95;;;;;;;;;;5106945;28;20513;-75
2023/01/05 08:28:46;;;;;;;2.45;1.20;;;;;;;;;;5106868;28;20039;-75
2023/01/05 08:31:19;;;;;;;4.82;1.20;;;;;;;;;;5106411;28;20059;-75
2023/01/05 08:33:50;;;;;;;4.68;1.45;;;;;;;;;;5104765;28;20059;-75
2023/01/05 08:36:23;;;;;;;4.97;1.50;;;;;;;;;;5110726;28;20048;-75
2023/01/05 08:38:54;;;;;;;4.47;1.05;;;;;;;;;;5110543;28;20056;-75
2023/01/05 08:41:29;;;;;;;7.68;1.10;;;;;;;;;;5110877;28;20397;-75
2023/01/05 08:44:02;;;;;;;4.13;1.30;;;;;;;;;;5110799;28;20113;-75
2023/01/05 08:46:34;;;;;;;5.13;1.33;;;;;;;;;;5110391;28;20490;-75
2023/01/05 08:49:07;;;;;;;6.18;1.35;;;;;;;;;;5110498;28;20055;-75
2023/01/05 08:51:37;;;;;;;6.80;1.30;;;;;;;;;;5110627;28;20050;-76
2023/01/05 08:54:07;;;;;;;5.80;1.45;;;;;;;;;;5110455;28;20043;-75
2023/01/05 08:56:38;;;;;;;9.32;1.33;;;;;;;;;;5110533;28;20066;-75
2023/01/05 08:59:12;;;;;;;9.65;1.60;;;;;;;;;;5108876;28;20050;-77
2023/01/05 09:01:42;;;;;;;5.53;1.50;;;;;;;;;;5109932;28;20048;-76
2023/01/05 09:04:12;;;;;;;14.15;1.92;;;;;;;;;;5108479;28;20039;-76
2023/01/05 09:06:43;;;;;;;6.15;1.23;;;;;;;;;;5111371;28;20235;-75
2023/01/05 09:09:13;;;;;;;2.53;1.23;;;;;;;;;;5110666;28;20396;-76
2023/01/05 09:11:43;;;;;;;2.10;1.23;;;;;;;;;;5110410;28;20052;-78
2023/01/05 09:14:14;;;;;;;5.55;1.00;;;;;;;;;;5110100;28;20400;-76
2023/01/05 09:16:44;;;;;;;5.00;1.30;;;;;;;;;;5109625;28;20059;-75
2023/01/05 09:19:37;;;;;;;9.50;1.23;;;;;;;;;;5109410;28;20051;-76
2023/01/05 09:22:08;;;;;;;6.18;1.45;;;;;;;;;;5108632;28;20051;-75
2023/01/05 09:24:38;;;;;;;4.03;1.30;;;;;;;;;;5109411;28;20075;-75
2023/01/05 09:27:09;;;;;;;5.40;1.45;;;;;;;;;;5109730;28;20054;-76
2023/01/05 09:29:40;;;;;;;7.47;2.25;;;;;;;;;;5109020;28;20052;-75
2023/01/05 09:32:10;;;;;;;8.52;1.80;;;;;;;;;;5108933;28;20074;-75
2023/01/05 09:34:42;;;;;;;5.10;1.50;;;;;;;;;;5109559;28;20052;-75
2023/01/05 09:37:12;;;;;;;8.10;1.98;;;;;;;;;;5109244;28;20532;-76
2023/01/05 09:39:43;;;;;;;10.20;1.73;;;;;;;;;;5109253;28;20055;-76
2023/01/05 09:42:18;;;;;;;5.05;1.23;;;;;;;;;;5109330;28;20050;-76
2023/01/05 09:45:03;;;;;;;6.53;1.73;;;;;;;;;;5109629;28;20510;-75
2023/01/05 09:47:41;;;;;;;3.05;1.40;;;;;;;;;;5108388;28;20058;-76
2023/01/05 09:50:24;;;;;;;3.30;1.20;;;;;;;;;;5109706;28;20078;-75
2023/01/05 09:52:58;;;;;;;5.20;2.30;;;;;;;;;;5109444;28;20043;-76
2023/01/05 09:55:33;;;;;;;5.60;2.35;;;;;;;;;;5107856;28;20043;-75
2023/01/05 09:58:12;;;;;;;5.25;1.50;;;;;;;;;;5109409;28;20494;-76
2023/01/05 10:01:02;;;;;;;6.90;1.48;;;;;;;;;;5109047;28;20078;-76
2023/01/05 10:03:38;;;;;;;2.72;1.25;;;;;;;;;;5106997;28;20052;-76
2023/01/05 10:06:33;;;;;;;4.25;1.45;;;;;;;;;;5107669;28;20079;-76
2023/01/05 10:09:05;;;;;;;5.53;1.80;;;;;;;;;;5109095;28;20040;-77
2023/01/05 10:14:49;;;;;;;3.25;1.52;;;;;;;;;;5108473;28;20044;-76
2023/01/05 10:17:22;;;;;;;7.95;1.25;;;;;;;;;;5107687;28;20406;-76
2023/01/05 10:20:15;;;;;;;3.83;1.38;;;;;;;;;;5108849;28;20058;-76
2023/01/05 10:22:53;;;;;;;8.38;1.90;;;;;;;;;;5108486;28;20047;-76
2023/01/05 10:25:48;;;;;;;8.65;2.45;;;;;;;;;;5109008;28;20047;-76
2023/01/05 10:28:36;;;;;;;;;;;;;;;;;;5106923;28;20044;-75
2023/01/05 10:31:41;;;;;;;4.10;1.42;;;;;;;;;;5086508;28;20287;-75
2023/01/05 10:34:37;;;;;;;6.95;1.30;;;;;;;;;;5086463;28;20048;-77
2023/01/05 10:37:27;;;;;;;6.40;1.40;;;;;;;;;;5088108;28;20044;-77
2023/01/05 10:40:42;;;;;;;10.27;2.33;;;;;;;;;;5087929;28;20043;-76
2023/01/05 10:43:46;;;;;;;4.13;1.50;;;;;;;;;;5086524;28;20039;-79
2023/01/05 10:46:17;;;;;;;5.82;1.20;;;;;;;;;;5087316;28;20047;-77
2023/01/05 10:49:02;;;;;;;6.95;1.98;;;;;;;;;;5086652;28;20075;-76
2023/01/05 10:51:34;;;;;;;6.85;1.60;;;;;;;;;;5087504;28;20050;-76
2023/01/05 10:54:06;;;;;;;6.57;1.45;;;;;;;;;;5087539;28;20044;-76
2023/01/05 10:56:36;;;;;;;8.20;1.58;;;;;;;;;;5087855;28;20047;-76
2023/01/05 10:59:09;;;;;;;4.47;1.40;;;;;;;;;;5087643;28;20050;-76
2023/01/05 11:01:45;;;;;;;4.45;1.38;;;;;;;;;;5086676;28;20056;-76
2023/01/05 11:04:22;;;;;;;7.57;1.35;;;;;;;;;;5087673;28;20056;-76
2023/01/05 11:07:06;;;;;;;12.68;1.50;;;;;;;;;;5087875;28;20059;-76
2023/01/05 11:09:40;;;;;;;4.57;1.30;;;;;;;;;;5087306;28;20055;-77
2023/01/05 11:12:24;;;;;;;2.85;0.95;;;;;;;;;;5087303;28;20055;-77
2023/01/05 11:14:57;;;;;;;5.45;1.17;;;;;;;;;;5087413;28;20047;-75
2023/01/05 11:17:29;;;;;;;11.65;2.28;;;;;;;;;;5087336;28;20052;-75
2023/01/05 11:20:00;;;;;;;5.75;1.13;;;;;;;;;;5087422;28;20052;-75
2023/01/05 11:22:32;;;;;;;4.15;1.10;;;;;;;;;;5086344;28;20048;-78
2023/01/05 11:25:24;;;;;;;7.25;3.45;;;;;;;;;;5087159;28;20047;-76
2023/01/05 11:28:14;;;;;;;6.25;1.35;;;;;;;;;;5087524;28;20059;-76
2023/01/05 11:31:00;;;;;;;2.33;1.00;;;;;;;;;;5086968;28;20051;-77
2023/01/05 11:33:35;;;;;;;6.20;1.00;;;;;;;;;;5086657;28;20051;-78
2023/01/05 11:36:06;;;;;;;6.80;1.15;;;;;;;;;;5086332;28;20052;-77
2023/01/05 11:38:36;;;;;;;7.32;1.10;;;;;;;;;;5087049;28;20489;-79
2023/01/05 11:41:13;;;;;;;14.13;6.50;;;;;;;;;;5087318;28;20399;-76
2023/01/05 11:43:46;;;;;;;5.43;1.20;;;;;;;;;;5086674;28;20043;-77
2023/01/05 11:46:18;;;;;;;3.67;0.90;;;;;;;;;;5086723;28;20048;-76
2023/01/05 11:48:54;;;;;;;1.88;0.85;;;;;;;;;;5085443;28;20054;-77
2023/01/05 11:51:45;;;;;;;6.70;0.80;;;;;;;;;;5087697;28;20525;-76
2023/01/05 11:54:37;;;;;;;2.17;0.70;;;;;;;;;;5086856;28;20053;-78
2023/01/05 11:57:15;;;;;;;3.00;0.70;;;;;;;;;;5087365;28;20048;-77
2023/01/05 11:59:47;;;;;;;0.90;0.40;;;;;;;;;;5086939;28;20067;-77
2023/01/05 12:03:02;;;;;;;3.70;1.13;;;;;;;;;;5086279;28;20071;-76
2023/01/05 12:05:35;;;;;;;3.90;0.60;;;;;;;;;;5023730;28;20049;-77
2023/01/05 12:08:13;;;;;;;4.03;0.73;;;;;;;;;;5077554;28;20060;-76
2023/01/05 12:10:49;;;;;;;3.78;0.52;;;;;;;;;;5085985;28;20055;-76
2023/01/05 12:13:23;;;;;;;1.35;0.52;;;;;;;;;;5086133;28;20060;-78
2023/01/05 12:16:31;;;;;;;8.65;0.90;;;;;;;;;;5085817;28;20055;-77
2023/01/05 12:19:08;;;;;;;2.25;0.55;;;;;;;;;;5085444;28;20761;-78
2023/01/05 12:22:02;;;;;;;2.67;0.60;;;;;;;;;;5084488;28;20043;-77
2023/01/05 12:25:01;;;;;;;1.85;0.60;;;;;;;;;;5079508;28;20060;-77
2023/01/05 12:27:51;;;;;;;3.78;0.70;;;;;;;;;;5086190;28;20040;-77
2023/01/05 12:30:42;;;;;;;1.90;0.57;;;;;;;;;;5086617;28;20418;-76
2023/01/05 12:33:50;;;;;;;4.97;0.68;;;;;;;;;;5086237;28;20040;-77
2023/01/05 12:37:18;;;;;;;5.68;0.77;;;;;;;;;;5086402;28;20055;-77
2023/01/05 12:40:03;;;;;;;2.83;0.57;;;;;;;;;;5086606;28;20059;-76
2023/01/05 12:43:05;;;;;;;3.67;0.60;;;;;;;;;;5086364;28;20055;-78
2023/01/05 12:45:48;;;;;;;2.83;1.15;;;;;;;;;;5085842;28;20513;-79
2023/01/05 12:48:27;;;;;;;2.58;0.52;;;;;;;;;;5085032;28;20830;-77
2023/01/05 12:51:00;;;;;;;1.10;0.60;;;;;;;;;;5085847;28;20055;-77
2023/01/05 12:53:57;;;;;;;4.00;0.70;;;;;;;;;;5085256;28;20059;-76
2023/01/05 12:56:43;;;;;;;4.30;0.60;;;;;;;;;;5086070;28;20059;-77
2023/01/05 12:59:55;;;;;;;1.95;0.60;;;;;;;;;;5085567;28;20044;-77
2023/01/05 13:02:35;;;;;;;1.85;0.52;;;;;;;;;;5007652;28;20101;-76
2023/01/05 13:05:23;;;;;;;3.13;0.65;;;;;;;;;;5082876;28;20071;-76
2023/01/05 13:07:55;;;;;;;4.20;1.13;;;;;;;;;;5086217;28;20048;-76
2023/01/05 13:11:02;;;;;;;3.58;0.55;;;;;;;;;;5085743;28;20436;-78
2023/01/05 13:13:47;;;;;;;7.68;3.60;;;;;;;;;;5085951;28;20044;-78
2023/01/05 13:16:25;;;;;;;4.88;0.80;;;;;;;;;;5086336;28;20605;-78
2023/01/05 13:19:06;;;;;;;5.75;0.98;;;;;;;;;;5086102;28;20040;-76
2023/01/05 13:21:41;;;;;;;3.80;0.68;;;;;;;;;;5068862;28;20051;-77
2023/01/05 13:24:27;;;;;;;5.53;0.60;;;;;;;;;;5089488;28;20040;-77
2023/01/05 13:27:00;;;;;;;3.47;0.68;;;;;;;;;;5089889;28;20047;-77
2023/01/05 13:29:34;;;;;;;2.17;0.40;;;;;;;;;;5088613;28;20040;-78
2023/01/05 13:32:37;;;;;;;1.85;0.40;;;;;;;;;;5087762;28;20056;-76
2023/01/05 13:35:28;;;;;;;1.90;0.43;;;;;;;;;;5089031;28;20514;-77
2023/01/05 13:38:19;;;;;;;1.05;0.50;;;;;;;;;;5089158;28;20028;-76
2023/01/05 13:41:07;;;;;;;1.45;0.52;;;;;;;;;;5088683;28;20052;-76
2023/01/05 13:44:01;;;;;;;2.35;0.50;;;;;;;;;;5089167;28;20048;-77
2023/01/05 13:47:08;;;;;;;5.65;1.00;;;;;;;;;;5087448;28;20048;-77
2023/01/05 13:50:22;;;;;;;1.33;0.60;;;;;;;;;;5087832;28;20048;-77
2023/01/05 13:53:04;;;;;;;5.85;0.63;;;;;;;;;;5089356;28;20499;-77
2023/01/05 13:55:42;;;;;;;5.20;0.85;;;;;;;;;;5088599;28;20063;-77
2023/01/05 13:58:28;;;;;;;4.40;0.75;;;;;;;;;;5088951;28;20506;-76
2023/01/05 14:01:03;;;;;;;2.28;0.52;;;;;;;;;;5089146;28;20491;-78
2023/01/05 14:03:46;;;;;;;2.38;0.60;;;;;;;;;;5087015;28;20533;-81
2023/01/05 14:06:27;;;;;;;2.08;0.40;;;;;;;;;;5089038;28;20040;-78
2023/01/05 14:09:14;;;;;;;4.10;0.57;;;;;;;;;;5089150;28;20114;-77
2023/01/05 14:12:25;;;;;;;6.00;0.93;;;;;;;;;;5088329;28;20052;-76
2023/01/05 14:15:23;;;;;;;8.60;0.60;;;;;;;;;;5025750;28;20346;-76
2023/01/05 14:18:01;;;;;;;6.97;0.68;;;;;;;;;;5026094;28;20447;-77
2023/01/05 14:20:41;;;;;;;3.78;0.50;;;;;;;;;;5075449;28;20052;-77
2023/01/05 14:23:28;;;;;;;4.97;0.60;;;;;;;;;;5089064;28;20044;-77
2023/01/05 14:26:03;;;;;;;3.72;1.20;;;;;;;;;;5088150;28;20043;-76
2023/01/05 14:28:33;;;;;;;4.05;0.70;;;;;;;;;;5088451;28;20051;-77
2023/01/05 14:31:15;;;;;;;3.13;1.00;;;;;;;;;;5088929;28;20052;-76
2023/01/05 14:33:54;;;;;;;5.43;0.80;;;;;;;;;;5087545;28;20039;-77
2023/01/05 14:36:34;;;;;;;2.53;0.60;;;;;;;;;;5088253;28;20422;-77
2023/01/05 14:39:30;;;;;;;2.42;0.57;;;;;;;;;;5086828;28;20044;-78
2023/01/05 14:42:15;;;;;;;3.08;0.88;;;;;;;;;;5087957;28;20441;-76
2023/01/05 14:45:07;;;;;;;4.13;0.63;;;;;;;;;;5087635;28;20055;-79
2023/01/05 14:47:47;;;;;;;1.73;0.50;;;;;;;;;;5088141;28;20360;-77
2023/01/05 14:50:40;;;;;;;8.27;0.57;;;;;;;;;;5087776;28;20058;-77
2023/01/05 14:53:38;;;;;;;5.10;0.68;;;;;;;;;;5087435;28;20048;-79
2023/01/05 14:56:28;;;;;;;2.22;0.60;;;;;;;;;;5087835;28;20051;-78
2023/01/05 14:59:08;;;;;;;8.73;0.80;;;;;;;;;;5088232;28;20495;-75
2023/01/05 15:02:14;;;;;;;2.22;0.60;;;;;;;;;;5086206;28;20498;-76
2023/01/05 15:04:44;;;;;;;7.50;0.55;;;;;;;;;;5087805;28;20047;-77
2023/01/05 15:07:23;;;;;;;3.25;0.80;;;;;;;;;;5087559;28;20040;-76
2023/01/05 15:10:47;;;;;;;3.80;0.70;;;;;;;;;;5087614;28;20043;-77
2023/01/05 15:17:13;;;;;;;5.22;0.63;;;;;;;;;;5077876;28;20066;-77
2023/01/05 15:20:08;;;;;;;2.60;0.70;;;;;;;;;;5085684;28;20082;-76
2023/01/05 15:23:15;;;;;;;1.77;0.80;;;;;;;;;;5087094;28;20526;-77
2023/01/05 15:26:11;;;;;;;3.13;0.52;;;;;;;;;;5087233;28;20048;-77
2023/01/05 15:29:05;;;;;;;4.43;0.90;;;;;;;;;;5087933;28;20395;-77
2023/01/05 15:31:39;;;;;;;4.55;0.70;;;;;;;;;;5087116;28;20044;-77
2023/01/05 15:34:16;;;;;;;4.00;0.70;;;;;;;;;;5086973;28;20067;-79
2023/01/05 15:36:59;;;;;;;2.90;0.60;;;;;;;;;;5087265;28;20048;-77
2023/01/05 15:39:44;;;;;;;4.95;0.75;;;;;;;;;;5086973;28;20498;-77
2023/01/05 15:42:35;;;;;;;5.43;0.63;;;;;;;;;;5086646;28;20044;-77
2023/01/05 15:45:15;;;;;;;1.35;0.52;;;;;;;;;;5084905;28;20051;-76
2023/01/05 15:47:48;;;;;;;4.63;0.60;;;;;;;;;;5085879;28;20055;-77
2023/01/05 15:50:26;;;;;;;11.32;1.63;;;;;;;;;;5087702;28;20040;-78
2023/01/05 15:52:58;;;;;;;2.45;0.60;;;;;;;;;;5087157;28;20418;-76
2023/01/05 15:55:30;;;;;;;3.72;0.65;;;;;;;;;;5087077;28;20048;-75
2023/01/05 15:58:04;;;;;;;4.45;0.88;;;;;;;;;;5085453;28;20514;-76
2023/01/05 16:00:37;;;;;;;1.85;0.73;;;;;;;;;;5086962;28;20057;-75
2023/01/05 16:03:26;;;;;;;3.30;0.60;;;;;;;;;;5086678;28;20446;-76
2023/01/05 16:06:25;;;;;;;0.65;0.40;;;;;;;;;;5086648;28;20047;-74
2023/01/05 16:09:00;;;;;;;1.80;0.70;;;;;;;;;;5085961;28;20067;-75
2023/01/05 16:11:34;;;;;;;6.68;0.85;;;;;;;;;;5085839;28;20048;-77
2023/01/05 16:14:40;;;;;;;3.20;0.60;;;;;;;;;;5084857;28;20071;-75
2023/01/05 16:17:18;;;;;;;6.95;0.82;;;;;;;;;;5074624;28;20063;-76
2023/01/05 16:19:53;;;;;;;5.10;0.60;;;;;;;;;;5086448;28;20048;-77
2023/01/05 16:22:29;;;;;;;2.17;0.73;;;;;;;;;;5085091;28;20040;-75
2023/01/05 16:25:05;;;;;;;1.15;0.50;;;;;;;;;;5086488;28;20043;-76